sensor_id;sensor_type;location;lat;lon;timestamp;pressure;altitude;pressure_sealevel;temperature
67966;BMP280;54749;47.850;9.002;2024-01-30T00:02:18;97382.41;;;-1.56
67966;BMP280;54749;47.850;9.002;2024-01-30T00:04:45;97379.91;;;-1.58
67966;BMP280;54749;47.850;9.002;2024-01-30T00:07:12;97384.88;;;-1.59
67966;BMP280;54749;47.850;9.002;2024-01-30T00:09:39;97382.41;;;-1.59
67966;BMP280;54749;47.850;9.002;2024-01-30T00:12:07;97382.44;;;-1.60
67966;BMP280;54749;47.850;9.002;2024-01-30T00:14:34;97383.22;;;-1.58
67966;BMP280;54749;47.850;9.002;2024-01-30T00:17:04;97382.41;;;-1.58
67966;BMP280;54749;47.850;9.002;2024-01-30T00:19:31;97375.00;;;-1.60
67966;BMP280;54749;47.850;9.002;2024-01-30T00:21:59;97384.06;;;-1.58
67966;BMP280;54749;47.850;9.002;2024-01-30T00:24:26;97377.47;;;-1.60
67966;BMP280;54749;47.850;9.002;2024-01-30T00:26:53;97379.13;;;-1.61
67966;BMP280;54749;47.850;9.002;2024-01-30T00:29:20;97376.66;;;-1.62
67966;BMP280;54749;47.850;9.002;2024-01-30T00:31:50;97378.31;;;-1.64
67966;BMP280;54749;47.850;9.002;2024-01-30T00:34:17;97378.34;;;-1.67
67966;BMP280;54749;47.850;9.002;2024-01-30T00:36:44;97380.81;;;-1.69
67966;BMP280;54749;47.850;9.002;2024-01-30T00:39:11;97383.31;;;-1.70
67966;BMP280;54749;47.850;9.002;2024-01-30T00:41:38;97379.19;;;-1.73
67966;BMP280;54749;47.850;9.002;2024-01-30T00:44:05;97388.31;;;-1.76
67966;BMP280;54749;47.850;9.002;2024-01-30T00:46:33;97389.13;;;-1.75
67966;BMP280;54749;47.850;9.002;2024-01-30T00:49:00;97394.91;;;-1.75
67966;BMP280;54749;47.850;9.002;2024-01-30T00:51:27;97395.75;;;-1.75
67966;BMP280;54749;47.850;9.002;2024-01-30T00:53:56;97388.31;;;-1.76
67966;BMP280;54749;47.850;9.002;2024-01-30T00:56:23;97392.44;;;-1.76
67966;BMP280;54749;47.850;9.002;2024-01-30T00:58:51;97390.78;;;-1.77
67966;BMP280;54749;47.850;9.002;2024-01-30T01:01:18;97390.78;;;-1.77
67966;BMP280;54749;47.850;9.002;2024-01-30T01:03:45;97388.31;;;-1.77
67966;BMP280;54749;47.850;9.002;2024-01-30T01:06:13;97393.25;;;-1.76
67966;BMP280;54749;47.850;9.002;2024-01-30T01:08:41;97396.56;;;-1.77
67966;BMP280;54749;47.850;9.002;2024-01-30T01:11:08;97379.22;;;-1.75
67966;BMP280;54749;47.850;9.002;2024-01-30T01:13:36;97387.47;;;-1.75
67966;BMP280;54749;47.850;9.002;2024-01-30T01:16:03;97395.75;;;-1.75
67966;BMP280;54749;47.850;9.002;2024-01-30T01:18:31;97387.44;;;-1.71
67966;BMP280;54749;47.850;9.002;2024-01-30T01:20:58;97389.09;;;-1.70
67966;BMP280;54749;47.850;9.002;2024-01-30T01:23:26;97397.38;;;-1.69
67966;BMP280;54749;47.850;9.002;2024-01-30T01:25:53;97406.41;;;-1.68
67966;BMP280;54749;47.850;9.002;2024-01-30T01:28:23;97399.84;;;-1.69
67966;BMP280;54749;47.850;9.002;2024-01-30T01:30:51;97387.41;;;-1.68
67966;BMP280;54749;47.850;9.002;2024-01-30T01:33:18;97394.84;;;-1.68
67966;BMP280;54749;47.850;9.002;2024-01-30T01:35:45;97401.47;;;-1.68
67966;BMP280;54749;47.850;9.002;2024-01-30T01:38:12;97391.53;;;-1.68
67966;BMP280;54749;47.850;9.002;2024-01-30T01:40:40;97386.59;;;-1.68
67966;BMP280;54749;47.850;9.002;2024-01-30T01:43:08;97390.69;;;-1.64
67966;BMP280;54749;47.850;9.002;2024-01-30T01:45:35;97398.94;;;-1.61
67966;BMP280;54749;47.850;9.002;2024-01-30T01:48:03;97393.97;;;-1.59
67966;BMP280;54749;47.850;9.002;2024-01-30T01:50:30;97389.84;;;-1.56
67966;BMP280;54749;47.850;9.002;2024-01-30T01:52:58;97396.41;;;-1.54
67966;BMP280;54749;47.850;9.002;2024-01-30T01:55:25;97387.31;;;-1.53
67966;BMP280;54749;47.850;9.002;2024-01-30T01:57:55;97383.19;;;-1.53
67966;BMP280;54749;47.850;9.002;2024-01-30T02:00:23;97392.25;;;-1.50
67966;BMP280;54749;47.850;9.002;2024-01-30T02:02:50;97390.59;;;-1.51
67966;BMP280;54749;47.850;9.002;2024-01-30T02:05:18;97384.00;;;-1.52
67966;BMP280;54749;47.850;9.002;2024-01-30T02:07:46;97389.81;;;-1.53
67966;BMP280;54749;47.850;9.002;2024-01-30T02:10:13;97389.81;;;-1.55
67966;BMP280;54749;47.850;9.002;2024-01-30T02:12:50;97378.22;;;-1.56
67966;BMP280;54749;47.850;9.002;2024-01-30T02:15:17;97388.16;;;-1.56
67966;BMP280;54749;47.850;9.002;2024-01-30T02:17:44;97381.53;;;-1.55
67966;BMP280;54749;47.850;9.002;2024-01-30T02:20:12;97380.72;;;-1.54
67966;BMP280;54749;47.850;9.002;2024-01-30T02:22:41;97388.97;;;-1.55
67966;BMP280;54749;47.850;9.002;2024-01-30T02:25:08;97388.16;;;-1.56
67966;BMP280;54749;47.850;9.002;2024-01-30T02:27:35;97376.63;;;-1.58
67966;BMP280;54749;47.850;9.002;2024-01-30T02:30:03;97389.84;;;-1.58
67966;BMP280;54749;47.850;9.002;2024-01-30T02:32:30;97392.31;;;-1.58
67966;BMP280;54749;47.850;9.002;2024-01-30T02:34:57;97384.09;;;-1.61
67966;BMP280;54749;47.850;9.002;2024-01-30T02:37:25;97392.34;;;-1.63
67966;BMP280;54749;47.850;9.002;2024-01-30T02:39:52;97393.19;;;-1.66
67966;BMP280;54749;47.850;9.002;2024-01-30T02:42:19;97388.25;;;-1.66
67966;BMP280;54749;47.850;9.002;2024-01-30T02:44:49;97387.41;;;-1.68
67966;BMP280;54749;47.850;9.002;2024-01-30T02:47:16;97384.97;;;-1.71
67966;BMP280;54749;47.850;9.002;2024-01-30T02:49:43;97394.06;;;-1.73
67966;BMP280;54749;47.850;9.002;2024-01-30T02:52:10;97380.88;;;-1.75
67966;BMP280;54749;47.850;9.002;2024-01-30T02:54:37;97387.50;;;-1.79
67966;BMP280;54749;47.850;9.002;2024-01-30T02:57:04;97385.03;;;-1.81
67966;BMP280;54749;47.850;9.002;2024-01-30T02:59:32;97383.38;;;-1.80
67966;BMP280;54749;47.850;9.002;2024-01-30T03:02:02;97378.47;;;-1.83
67966;BMP280;54749;47.850;9.002;2024-01-30T03:04:30;97382.59;;;-1.84
67966;BMP280;54749;47.850;9.002;2024-01-30T03:06:57;97389.16;;;-1.81
67966;BMP280;54749;47.850;9.002;2024-01-30T03:09:25;97383.41;;;-1.82
67966;BMP280;54749;47.850;9.002;2024-01-30T03:11:52;97381.78;;;-1.87
67966;BMP280;54749;47.850;9.002;2024-01-30T03:14:19;97382.63;;;-1.88
67966;BMP280;54749;47.850;9.002;2024-01-30T03:16:46;97384.28;;;-1.93
67966;BMP280;54749;47.850;9.002;2024-01-30T03:19:13;97376.88;;;-1.96
67966;BMP280;54749;47.850;9.002;2024-01-30T03:21:40;97389.28;;;-1.99
67966;BMP280;54749;47.850;9.002;2024-01-30T03:24:07;97381.06;;;-2.04
67966;BMP280;54749;47.850;9.002;2024-01-30T03:26:35;97384.38;;;-2.08
67966;BMP280;54749;47.850;9.002;2024-01-30T03:29:03;97373.66;;;-2.10
67966;BMP280;54749;47.850;9.002;2024-01-30T03:31:30;97378.63;;;-2.11
67966;BMP280;54749;47.850;9.002;2024-01-30T03:33:57;97372.00;;;-2.12
67966;BMP280;54749;47.850;9.002;2024-01-30T03:36:24;97365.44;;;-2.14
67966;BMP280;54749;47.850;9.002;2024-01-30T03:38:51;97374.50;;;-2.16
67966;BMP280;54749;47.850;9.002;2024-01-30T03:41:18;97380.31;;;-2.17
67966;BMP280;54749;47.850;9.002;2024-01-30T03:43:47;97372.88;;;-2.19
67966;BMP280;54749;47.850;9.002;2024-01-30T03:46:13;97370.41;;;-2.19
67966;BMP280;54749;47.850;9.002;2024-01-30T03:48:41;97373.72;;;-2.20
67966;BMP280;54749;47.850;9.002;2024-01-30T03:51:08;97377.03;;;-2.22
67966;BMP280;54749;47.850;9.002;2024-01-30T03:53:36;97369.59;;;-2.25
67966;BMP280;54749;47.850;9.002;2024-01-30T03:56:03;97370.47;;;-2.26
67966;BMP280;54749;47.850;9.002;2024-01-30T03:58:30;97380.34;;;-2.25
67966;BMP280;54749;47.850;9.002;2024-01-30T04:00:57;97376.22;;;-2.24
67966;BMP280;54749;47.850;9.002;2024-01-30T04:03:25;97369.59;;;-2.25
67966;BMP280;54749;47.850;9.002;2024-01-30T04:05:52;97377.88;;;-2.26
67966;BMP280;54749;47.850;9.002;2024-01-30T04:08:20;97367.13;;;-2.25
67966;BMP280;54749;47.850;9.002;2024-01-30T04:10:47;97375.41;;;-2.26
67966;BMP280;54749;47.850;9.002;2024-01-30T04:13:14;97381.16;;;-2.24
67966;BMP280;54749;47.850;9.002;2024-01-30T04:15:41;97377.88;;;-2.26
67966;BMP280;54749;47.850;9.002;2024-01-30T04:18:08;97374.56;;;-2.28
67966;BMP280;54749;47.850;9.002;2024-01-30T04:20:36;97372.94;;;-2.32
67966;BMP280;54749;47.850;9.002;2024-01-30T04:23:03;97365.56;;;-2.35
67966;BMP280;54749;47.850;9.002;2024-01-30T04:25:30;97365.53;;;-2.36
67966;BMP280;54749;47.850;9.002;2024-01-30T04:27:57;97372.97;;;-2.38
67966;BMP280;54749;47.850;9.002;2024-01-30T04:30:24;97371.34;;;-2.39
67966;BMP280;54749;47.850;9.002;2024-01-30T04:32:52;97364.75;;;-2.38
67966;BMP280;54749;47.850;9.002;2024-01-30T04:35:19;97370.53;;;-2.39
67966;BMP280;54749;47.850;9.002;2024-01-30T04:37:52;97302.03;;;-2.39
67966;BMP280;54749;47.850;9.002;2024-01-30T04:40:20;97373.81;;;-2.39
67966;BMP280;54749;47.850;9.002;2024-01-30T04:42:48;97374.63;;;-2.41
67966;BMP280;54749;47.850;9.002;2024-01-30T04:45:15;97374.66;;;-2.40
67966;BMP280;54749;47.850;9.002;2024-01-30T04:47:42;97371.34;;;-2.42
67966;BMP280;54749;47.850;9.002;2024-01-30T04:50:09;97382.09;;;-2.43
67966;BMP280;54749;47.850;9.002;2024-01-30T04:52:37;97382.09;;;-2.43
67966;BMP280;54749;47.850;9.002;2024-01-30T04:55:04;97380.41;;;-2.42
67966;BMP280;54749;47.850;9.002;2024-01-30T04:57:32;97387.03;;;-2.43
67966;BMP280;54749;47.850;9.002;2024-01-30T05:00:00;97385.38;;;-2.44
67966;BMP280;54749;47.850;9.002;2024-01-30T05:02:27;97389.50;;;-2.45
67966;BMP280;54749;47.850;9.002;2024-01-30T05:04:54;97384.56;;;-2.45
67966;BMP280;54749;47.850;9.002;2024-01-30T05:07:22;97384.56;;;-2.43
67966;BMP280;54749;47.850;9.002;2024-01-30T05:09:49;97387.88;;;-2.44
67966;BMP280;54749;47.850;9.002;2024-01-30T05:12:16;97380.44;;;-2.44
67966;BMP280;54749;47.850;9.002;2024-01-30T05:14:43;97387.88;;;-2.44
67966;BMP280;54749;47.850;9.002;2024-01-30T05:17:10;97387.06;;;-2.48
67966;BMP280;54749;47.850;9.002;2024-01-30T05:19:39;97390.34;;;-2.49
67966;BMP280;54749;47.850;9.002;2024-01-30T05:22:06;97393.66;;;-2.49
67966;BMP280;54749;47.850;9.002;2024-01-30T05:24:33;97393.69;;;-2.52
67966;BMP280;54749;47.850;9.002;2024-01-30T05:27:01;97391.19;;;-2.50
67966;BMP280;54749;47.850;9.002;2024-01-30T05:29:28;97390.38;;;-2.52
67966;BMP280;54749;47.850;9.002;2024-01-30T05:31:55;97389.53;;;-2.54
67966;BMP280;54749;47.850;9.002;2024-01-30T05:34:22;97392.03;;;-2.57
67966;BMP280;54749;47.850;9.002;2024-01-30T05:36:49;97393.69;;;-2.58
67966;BMP280;54749;47.850;9.002;2024-01-30T05:39:16;97387.09;;;-2.57
67966;BMP280;54749;47.850;9.002;2024-01-30T05:41:44;97401.94;;;-2.57
67966;BMP280;54749;47.850;9.002;2024-01-30T05:44:11;97397.81;;;-2.57
67966;BMP280;54749;47.850;9.002;2024-01-30T05:46:39;97407.72;;;-2.57
67966;BMP280;54749;47.850;9.002;2024-01-30T05:49:06;97405.22;;;-2.60
67966;BMP280;54749;47.850;9.002;2024-01-30T05:51:33;97405.25;;;-2.61
67966;BMP280;54749;47.850;9.002;2024-01-30T05:54:00;97405.25;;;-2.63
67966;BMP280;54749;47.850;9.002;2024-01-30T05:56:30;97405.25;;;-2.65
67966;BMP280;54749;47.850;9.002;2024-01-30T05:58:57;97404.44;;;-2.66
67966;BMP280;54749;47.850;9.002;2024-01-30T06:01:24;97401.13;;;-2.68
67966;BMP280;54749;47.850;9.002;2024-01-30T06:03:52;97409.41;;;-2.69
67966;BMP280;54749;47.850;9.002;2024-01-30T06:06:19;97402.81;;;-2.70
67966;BMP280;54749;47.850;9.002;2024-01-30T06:08:46;97404.44;;;-2.72
67966;BMP280;54749;47.850;9.002;2024-01-30T06:11:13;97399.50;;;-2.72
67966;BMP280;54749;47.850;9.002;2024-01-30T06:13:40;97403.59;;;-2.68
67966;BMP280;54749;47.850;9.002;2024-01-30T06:16:10;97402.78;;;-2.67
67966;BMP280;54749;47.850;9.002;2024-01-30T06:18:38;97396.19;;;-2.68
67966;BMP280;54749;47.850;9.002;2024-01-30T06:21:06;97401.16;;;-2.71
67966;BMP280;54749;47.850;9.002;2024-01-30T06:23:36;97401.97;;;-2.72
67966;BMP280;54749;47.850;9.002;2024-01-30T06:26:03;97404.44;;;-2.72
67966;BMP280;54749;47.850;9.002;2024-01-30T06:28:30;97409.38;;;-2.72
67966;BMP280;54749;47.850;9.002;2024-01-30T06:31:01;97405.28;;;-2.70
67966;BMP280;54749;47.850;9.002;2024-01-30T06:33:28;97404.44;;;-2.66
67966;BMP280;54749;47.850;9.002;2024-01-30T06:35:55;97406.09;;;-2.65
67966;BMP280;54749;47.850;9.002;2024-01-30T06:38:22;97410.19;;;-2.63
67966;BMP280;54749;47.850;9.002;2024-01-30T06:40:49;97406.88;;;-2.59
67966;BMP280;54749;47.850;9.002;2024-01-30T06:43:16;97410.19;;;-2.57
67966;BMP280;54749;47.850;9.002;2024-01-30T06:45:44;97412.66;;;-2.52
67966;BMP280;54749;47.850;9.002;2024-01-30T06:48:11;97412.63;;;-2.49
67966;BMP280;54749;47.850;9.002;2024-01-30T06:50:38;97415.91;;;-2.46
67966;BMP280;54749;47.850;9.002;2024-01-30T06:53:05;97415.91;;;-2.43
67966;BMP280;54749;47.850;9.002;2024-01-30T06:55:32;97418.38;;;-2.39
67966;BMP280;54749;47.850;9.002;2024-01-30T06:57:59;97424.13;;;-2.37
67966;BMP280;54749;47.850;9.002;2024-01-30T07:00:27;97417.50;;;-2.32
67966;BMP280;54749;47.850;9.002;2024-01-30T07:02:54;97419.13;;;-2.25
67966;BMP280;54749;47.850;9.002;2024-01-30T07:05:21;97426.53;;;-2.18
67966;BMP280;54749;47.850;9.002;2024-01-30T07:07:48;97422.38;;;-2.09
67966;BMP280;54749;47.850;9.002;2024-01-30T07:10:16;97421.47;;;-1.97
67966;BMP280;54749;47.850;9.002;2024-01-30T07:12:43;97416.47;;;-1.87
67966;BMP280;54749;47.850;9.002;2024-01-30T07:15:10;97423.78;;;-1.73
67966;BMP280;54749;47.850;9.002;2024-01-30T07:17:38;97418.75;;;-1.58
67966;BMP280;54749;47.850;9.002;2024-01-30T07:20:06;97415.34;;;-1.47
67966;BMP280;54749;47.850;9.002;2024-01-30T07:22:33;97420.22;;;-1.34
67966;BMP280;54749;47.850;9.002;2024-01-30T07:25:01;97421.75;;;-1.18
67966;BMP280;54749;47.850;9.002;2024-01-30T07:27:28;97422.47;;;-1.06
67966;BMP280;54749;47.850;9.002;2024-01-30T07:29:55;97419.03;;;-0.92
67966;BMP280;54749;47.850;9.002;2024-01-30T07:32:22;97422.19;;;-0.77
67966;BMP280;54749;47.850;9.002;2024-01-30T07:34:50;97422.81;;;-0.59
67966;BMP280;54749;47.850;9.002;2024-01-30T07:37:32;97430.84;;;-0.36
67966;BMP280;54749;47.850;9.002;2024-01-30T07:40:01;97424.03;;;-0.20
67966;BMP280;54749;47.850;9.002;2024-01-30T07:42:28;97425.53;;;-0.07
67966;BMP280;54749;47.850;9.002;2024-01-30T07:44:56;97438.66;;;0.00
67966;BMP280;54749;47.850;9.002;2024-01-30T07:47:23;97436.06;;;0.12
67966;BMP280;54749;47.850;9.002;2024-01-30T07:49:50;97435.00;;;0.28
67966;BMP280;54749;47.850;9.002;2024-01-30T07:52:18;97436.53;;;0.37
67966;BMP280;54749;47.850;9.002;2024-01-30T07:54:45;97438.81;;;0.51
67966;BMP280;54749;47.850;9.002;2024-01-30T07:57:12;97437.69;;;0.70
67966;BMP280;54749;47.850;9.002;2024-01-30T07:59:42;97430.75;;;0.90
67966;BMP280;54749;47.850;9.002;2024-01-30T08:02:09;97437.19;;;1.00
67966;BMP280;54749;47.850;9.002;2024-01-30T08:04:36;97435.31;;;1.13
67966;BMP280;54749;47.850;9.002;2024-01-30T08:07:03;97443.44;;;1.24
67966;BMP280;54749;47.850;9.002;2024-01-30T08:09:31;97441.00;;;1.21
67966;BMP280;54749;47.850;9.002;2024-01-30T08:11:58;97440.06;;;1.26
67966;BMP280;54749;47.850;9.002;2024-01-30T08:14:25;97441.47;;;1.42
67966;BMP280;54749;47.850;9.002;2024-01-30T08:16:52;97442.16;;;1.48
67966;BMP280;54749;47.850;9.002;2024-01-30T08:19:20;97445.38;;;1.55
67966;BMP280;54749;47.850;9.002;2024-01-30T08:21:47;97436.94;;;1.61
67966;BMP280;54749;47.850;9.002;2024-01-30T08:24:14;97445.06;;;1.71
67966;BMP280;54749;47.850;9.002;2024-01-30T08:26:41;97452.34;;;1.79
67966;BMP280;54749;47.850;9.002;2024-01-30T08:29:08;97436.34;;;1.91
67966;BMP280;54749;47.850;9.002;2024-01-30T08:31:35;97441.97;;;2.01
67966;BMP280;54749;47.850;9.002;2024-01-30T08:34:03;97447.38;;;2.21
67966;BMP280;54749;47.850;9.002;2024-01-30T08:36:30;97444.38;;;2.43
67966;BMP280;54749;47.850;9.002;2024-01-30T08:38:57;97437.81;;;2.76
67966;BMP280;54749;47.850;9.002;2024-01-30T08:41:30;97439.38;;;3.14
67966;BMP280;54749;47.850;9.002;2024-01-30T08:43:58;97439.81;;;3.61
67966;BMP280;54749;47.850;9.002;2024-01-30T08:46:24;97438.66;;;4.32
67966;BMP280;54749;47.850;9.002;2024-01-30T08:48:52;97432.19;;;5.29
67966;BMP280;54749;47.850;9.002;2024-01-30T08:51:20;97427.78;;;6.30
67966;BMP280;54749;47.850;9.002;2024-01-30T08:53:47;97418.91;;;7.46
67966;BMP280;54749;47.850;9.002;2024-01-30T08:56:14;97422.97;;;8.44
67966;BMP280;54749;47.850;9.002;2024-01-30T08:58:43;97422.13;;;9.14
67966;BMP280;54749;47.850;9.002;2024-01-30T09:01:10;97424.25;;;9.73
67966;BMP280;54749;47.850;9.002;2024-01-30T09:03:38;97423.28;;;10.23
67966;BMP280;54749;47.850;9.002;2024-01-30T09:06:10;97410.47;;;10.73
67966;BMP280;54749;47.850;9.002;2024-01-30T09:08:39;97421.22;;;10.61
67966;BMP280;54749;47.850;9.002;2024-01-30T09:11:09;97425.56;;;10.13
67966;BMP280;54749;47.850;9.002;2024-01-30T09:13:37;97427.59;;;9.73
67966;BMP280;54749;47.850;9.002;2024-01-30T09:16:05;97432.19;;;9.65
67966;BMP280;54749;47.850;9.002;2024-01-30T09:18:33;97418.59;;;10.01
67966;BMP280;54749;47.850;9.002;2024-01-30T09:21:00;97430.03;;;10.54
67966;BMP280;54749;47.850;9.002;2024-01-30T09:23:28;97419.94;;;10.85
67966;BMP280;54749;47.850;9.002;2024-01-30T09:25:55;97417.69;;;11.09
67966;BMP280;54749;47.850;9.002;2024-01-30T09:28:22;97426.69;;;11.29
67966;BMP280;54749;47.850;9.002;2024-01-30T09:30:53;97417.09;;;11.91
67966;BMP280;54749;47.850;9.002;2024-01-30T09:33:20;97422.19;;;12.46
67966;BMP280;54749;47.850;9.002;2024-01-30T09:35:47;97416.50;;;12.96
67966;BMP280;54749;47.850;9.002;2024-01-30T09:38:14;97427.94;;;13.28
67966;BMP280;54749;47.850;9.002;2024-01-30T09:40:41;97435.31;;;12.93
67966;BMP280;54749;47.850;9.002;2024-01-30T09:43:13;97421.44;;;13.24
67966;BMP280;54749;47.850;9.002;2024-01-30T09:45:44;97426.88;;;13.82
67966;BMP280;54749;47.850;9.002;2024-01-30T09:48:12;97415.72;;;14.45
67966;BMP280;54749;47.850;9.002;2024-01-30T09:50:39;97434.66;;;14.41
67966;BMP280;54749;47.850;9.002;2024-01-30T09:53:08;97430.88;;;14.35
67966;BMP280;54749;47.850;9.002;2024-01-30T09:55:35;97426.81;;;15.04
67966;BMP280;54749;47.850;9.002;2024-01-30T09:58:03;97428.06;;;15.21
67966;BMP280;54749;47.850;9.002;2024-01-30T10:00:30;97427.06;;;14.64
67966;BMP280;54749;47.850;9.002;2024-01-30T10:02:57;97431.59;;;14.00
67966;BMP280;54749;47.850;9.002;2024-01-30T10:05:26;97424.97;;;14.22
67966;BMP280;54749;47.850;9.002;2024-01-30T10:07:56;97422.41;;;14.71
67966;BMP280;54749;47.850;9.002;2024-01-30T10:10:24;97423.56;;;15.02
67966;BMP280;54749;47.850;9.002;2024-01-30T10:12:52;97424.03;;;15.19
67966;BMP280;54749;47.850;9.002;2024-01-30T10:15:19;97427.31;;;15.08
67966;BMP280;54749;47.850;9.002;2024-01-30T10:17:46;97418.00;;;14.72
67966;BMP280;54749;47.850;9.002;2024-01-30T10:20:13;97423.56;;;14.30
67966;BMP280;54749;47.850;9.002;2024-01-30T10:22:41;97432.78;;;13.95
67966;BMP280;54749;47.850;9.002;2024-01-30T10:25:12;97430.53;;;13.90
67966;BMP280;54749;47.850;9.002;2024-01-30T10:27:40;97433.44;;;14.22
67966;BMP280;54749;47.850;9.002;2024-01-30T10:30:08;97420.97;;;14.54
67966;BMP280;54749;47.850;9.002;2024-01-30T10:32:35;97415.97;;;15.12
67966;BMP280;54749;47.850;9.002;2024-01-30T10:35:03;97422.47;;;14.93
67966;BMP280;54749;47.850;9.002;2024-01-30T10:37:31;97434.25;;;14.23
67966;BMP280;54749;47.850;9.002;2024-01-30T10:40:03;97421.22;;;13.53
67966;BMP280;54749;47.850;9.002;2024-01-30T10:42:36;97442.56;;;12.58
67966;BMP280;54749;47.850;9.002;2024-01-30T10:45:07;97442.06;;;11.84
67966;BMP280;54749;47.850;9.002;2024-01-30T10:47:53;97429.78;;;11.19
67966;BMP280;54749;47.850;9.002;2024-01-30T10:50:24;97428.97;;;10.58
67966;BMP280;54749;47.850;9.002;2024-01-30T10:52:53;97425.56;;;10.13
67966;BMP280;54749;47.850;9.002;2024-01-30T10:55:21;97432.94;;;10.32
67966;BMP280;54749;47.850;9.002;2024-01-30T10:57:50;97424.50;;;10.63
67966;BMP280;54749;47.850;9.002;2024-01-30T11:00:18;97425.56;;;10.89
67966;BMP280;54749;47.850;9.002;2024-01-30T11:02:49;97414.22;;;10.81
67966;BMP280;54749;47.850;9.002;2024-01-30T11:05:27;97412.75;;;10.47
67966;BMP280;54749;47.850;9.002;2024-01-30T11:08:10;97415.03;;;9.88
67966;BMP280;54749;47.850;9.002;2024-01-30T11:10:47;97424.16;;;9.25
67966;BMP280;54749;47.850;9.002;2024-01-30T11:13:15;97418.97;;;8.93
67966;BMP280;54749;47.850;9.002;2024-01-30T11:15:42;97415.06;;;8.70
67966;BMP280;54749;47.850;9.002;2024-01-30T11:18:10;97414.78;;;8.57
67966;BMP280;54749;47.850;9.002;2024-01-30T11:20:37;97409.13;;;8.71
67966;BMP280;54749;47.850;9.002;2024-01-30T11:23:04;97408.44;;;8.85
67966;BMP280;54749;47.850;9.002;2024-01-30T11:25:34;97405.03;;;8.86
67966;BMP280;54749;47.850;9.002;2024-01-30T11:28:01;97400.00;;;8.68
67966;BMP280;54749;47.850;9.002;2024-01-30T11:30:30;97401.66;;;8.69
67966;BMP280;54749;47.850;9.002;2024-01-30T11:33:08;97394.59;;;8.75
67966;BMP280;54749;47.850;9.002;2024-01-30T11:35:37;97387.34;;;9.04
67966;BMP280;54749;47.850;9.002;2024-01-30T11:38:08;97386.91;;;9.29
67966;BMP280;54749;47.850;9.002;2024-01-30T11:40:37;97380.53;;;9.56
67966;BMP280;54749;47.850;9.002;2024-01-30T11:43:07;97381.13;;;9.27
67966;BMP280;54749;47.850;9.002;2024-01-30T11:45:35;97380.13;;;9.13
67966;BMP280;54749;47.850;9.002;2024-01-30T11:48:03;97370.53;;;9.21
67966;BMP280;54749;47.850;9.002;2024-01-30T11:50:35;97362.66;;;9.44
67966;BMP280;54749;47.850;9.002;2024-01-30T11:53:03;97368.44;;;9.45
67966;BMP280;54749;47.850;9.002;2024-01-30T11:55:31;97377.34;;;9.36
67966;BMP280;54749;47.850;9.002;2024-01-30T11:58:02;97375.78;;;9.33
67966;BMP280;54749;47.850;9.002;2024-01-30T12:00:30;97371.41;;;9.20
67966;BMP280;54749;47.850;9.002;2024-01-30T12:02:58;97364.72;;;9.19
67966;BMP280;54749;47.850;9.002;2024-01-30T12:05:29;97376.66;;;8.99
67966;BMP280;54749;47.850;9.002;2024-01-30T12:07:57;97371.25;;;8.72
67966;BMP280;54749;47.850;9.002;2024-01-30T12:10:28;97372.44;;;8.47
67966;BMP280;54749;47.850;9.002;2024-01-30T12:12:57;97371.63;;;8.29
67966;BMP280;54749;47.850;9.002;2024-01-30T12:15:25;97371.84;;;8.24
67966;BMP280;54749;47.850;9.002;2024-01-30T12:18:03;97369.25;;;8.26
67966;BMP280;54749;47.850;9.002;2024-01-30T12:20:30;97372.25;;;8.34
67966;BMP280;54749;47.850;9.002;2024-01-30T12:22:58;97353.13;;;7.92
67966;BMP280;54749;47.850;9.002;2024-01-30T12:25:25;97351.97;;;7.81
67966;BMP280;54749;47.850;9.002;2024-01-30T12:27:52;97347.81;;;7.80
67966;BMP280;54749;47.850;9.002;2024-01-30T12:30:21;97354.09;;;7.90
67966;BMP280;54749;47.850;9.002;2024-01-30T12:32:50;97353.94;;;7.93
67966;BMP280;54749;47.850;9.002;2024-01-30T12:35:19;97353.66;;;7.81
67966;BMP280;54749;47.850;9.002;2024-01-30T12:37:48;97345.72;;;7.89
67966;BMP280;54749;47.850;9.002;2024-01-30T12:40:16;97349.56;;;8.16
67966;BMP280;54749;47.850;9.002;2024-01-30T12:42:46;97344.47;;;7.99
67966;BMP280;54749;47.850;9.002;2024-01-30T12:45:16;97345.91;;;7.85
67966;BMP280;54749;47.850;9.002;2024-01-30T12:47:49;97340.78;;;8.06
67966;BMP280;54749;47.850;9.002;2024-01-30T12:50:16;97345.72;;;8.09
67966;BMP280;54749;47.850;9.002;2024-01-30T12:52:44;97343.00;;;8.13
67966;BMP280;54749;47.850;9.002;2024-01-30T12:55:16;97339.97;;;8.23
67966;BMP280;54749;47.850;9.002;2024-01-30T12:57:44;97345.78;;;8.25
67966;BMP280;54749;47.850;9.002;2024-01-30T13:00:11;97333.84;;;8.11
67966;BMP280;54749;47.850;9.002;2024-01-30T13:02:39;97332.34;;;8.07
67966;BMP280;54749;47.850;9.002;2024-01-30T13:05:06;97331.38;;;7.91
67966;BMP280;54749;47.850;9.002;2024-01-30T13:07:35;97333.06;;;7.91
67966;BMP280;54749;47.850;9.002;2024-01-30T13:10:02;97325.09;;;7.82
67966;BMP280;54749;47.850;9.002;2024-01-30T13:12:32;97332.28;;;7.71
67966;BMP280;54749;47.850;9.002;2024-01-30T13:15:00;97330.25;;;7.61
67966;BMP280;54749;47.850;9.002;2024-01-30T13:17:32;97331.69;;;7.66
67966;BMP280;54749;47.850;9.002;2024-01-30T13:20:00;97327.69;;;7.80
67966;BMP280;54749;47.850;9.002;2024-01-30T13:22:37;97322.38;;;7.86
67966;BMP280;54749;47.850;9.002;2024-01-30T13:25:06;97329.19;;;7.84
67966;BMP280;54749;47.850;9.002;2024-01-30T13:27:36;97328.41;;;8.02
67966;BMP280;54749;47.850;9.002;2024-01-30T13:30:04;97320.91;;;8.18
67966;BMP280;54749;47.850;9.002;2024-01-30T13:32:32;97327.72;;;8.34
67966;BMP280;54749;47.850;9.002;2024-01-30T13:34:59;97326.75;;;8.37
67966;BMP280;54749;47.850;9.002;2024-01-30T13:37:27;97329.88;;;8.41
67966;BMP280;54749;47.850;9.002;2024-01-30T13:39:54;97327.09;;;8.47
67966;BMP280;54749;47.850;9.002;2024-01-30T13:42:21;97336.41;;;8.45
67966;BMP280;54749;47.850;9.002;2024-01-30T13:44:48;97337.25;;;8.46
67966;BMP280;54749;47.850;9.002;2024-01-30T13:47:16;97332.66;;;8.54
67966;BMP280;54749;47.850;9.002;2024-01-30T13:49:43;97326.16;;;8.66
67966;BMP280;54749;47.850;9.002;2024-01-30T13:52:10;97339.38;;;8.71
67966;BMP280;54749;47.850;9.002;2024-01-30T13:54:37;97343.97;;;8.63
67966;BMP280;54749;47.850;9.002;2024-01-30T13:57:05;97357.84;;;8.54
67966;BMP280;54749;47.850;9.002;2024-01-30T13:59:33;97349.91;;;8.44
67966;BMP280;54749;47.850;9.002;2024-01-30T14:02:01;97346.91;;;8.37
67966;BMP280;54749;47.850;9.002;2024-01-30T14:04:28;97344.69;;;8.31
67966;BMP280;54749;47.850;9.002;2024-01-30T14:06:55;97343.88;;;8.12
67966;BMP280;54749;47.850;9.002;2024-01-30T14:09:30;97349.56;;;7.98
67966;BMP280;54749;47.850;9.002;2024-01-30T14:11:59;97357.25;;;7.75
67966;BMP280;54749;47.850;9.002;2024-01-30T14:14:26;97345.34;;;7.61
67966;BMP280;54749;47.850;9.002;2024-01-30T14:16:54;97349.56;;;7.60
67966;BMP280;54749;47.850;9.002;2024-01-30T14:19:21;97353.63;;;7.63